AirNav   Everest Fuels
 
 1242 users online  

FD48 Deep Forest Airport
Jacksonville, Florida, USA

GOING TO JACKSONVILLE?


FAA INFORMATION EFFECTIVE 19 MAY 2022

Location

FAA Identifier: FD48
Lat/Long: 30-14-30.8700N 081-26-59.3070W
30-14.514500N 081-26.988450W
30.2419083,-81.4498075
(estimated)
Elevation: 24 ft. / 7 m (estimated)
Variation: 03W (1985)
From city: 12 miles E of JACKSONVILLE, FL
Time zone: UTC -4 (UTC -5 during Standard Time)
Zip code: 32224

Airport Operations

Airport use: Private use. Permission required prior to landing
Activation date: 10/1985
Control tower: no
ARTCC: JACKSONVILLE CENTER
FSS: GAINESVILLE FLIGHT SERVICE STATION
Attendance: UNATNDD
Wind indicator: yes
Segmented circle: no
Lights: FOR MIRL RY 18/36 CALL 904-509-8501

Airport Communications

WX ASOS at CRG (7 nm NW): 125.4 (904-646-4670)
WX AWOS-3 at NIP (12 nm W): 119.275
WX AWOS-3PT at SGJ (18 nm S): 119.625 (904-824-7084)
WX AWOS-3 at HEG (19 nm W): 119.275 (904-695-0334)
WX ASOS at JAX (20 nm NW): 125.85 (904-741-4304)

Nearby radio navigation aids

VOR radial/distance  VOR name  Freq  Var
CRGr155/6.6CRAIG VORTAC114.5003W
SGJr346/18.2ST AUGUSTINE VOR/DME109.4006W

 
NDB name  Hdg/Dist  Freq  Var  ID
REYNOLDS040/19.733807WRYD .-. -.-- -..

Airport Services

Fuel available: A1

Runway Information

Runway 18/36

Dimensions: 6425 x 60 ft. / 1958 x 18 m
Surface: asphalt
Runway edge lights: non-standard
NSTD MIRL; INNER 5000 FT PORTION OF RY LGTD WITH WHITE LGTS; DSPLCD THLDS LGTD WITH BLUE LGTS; THLD LGTD WITH RED LGTS.
RUNWAY 18  RUNWAY 36
Traffic pattern: leftleft
Displaced threshold: 700 ft.700 ft.

Airport Ownership and Management from official FAA records

Ownership: Privately-owned
Owner: GEORGE HODGES, JR.
PO BOX 16771
JACKSONVILLE, FL 32245-6771
Phone 904-509-8501
Manager: JOHN R. CATHEY
P.O. BOX 17393
JACKSONVILLE, FL 32245-7393
Phone 904-223-0153

Airport Operational Statistics

Aircraft based on the field: 1
Jet airplanes: 1
    

Additional Remarks

FOR CD CTC JACKSONVILLE APCH AT 904-741-0284.

Instrument Procedures

There are no published instrument procedures at FD48.

Some nearby airports with instrument procedures:

KCRG - Jacksonville Executive Airport at Craig (7 nm NW)
KNRB - Mayport Naval Station (Adm David L. McDonald Field) (9 nm N)
KNIP - Jacksonville Naval Air Station (Towers Field) (12 nm W)
KSGJ - Northeast Florida Regional Airport (18 nm S)
KHEG - Herlong Recreational Airport (19 nm W)
KJAX - Jacksonville International Airport (20 nm NW)
 
Loc | Ops | Rwys | IFR | FBO | Links
Com | Nav | Svcs | Stats | Notes
Area around FD48 (Deep Forest Airport)
 
Road maps at: MapQuest Bing Google
 
Aerial photo
No photo
 
Sectional chart

 
Airport distance calculator
Flying to Deep Forest Airport? Find the distance to fly.

From to FD48

Sunrise and sunset
Times for 26-May-2022
 Local
(UTC-4)
 Zulu
(UTC)
Morning civil twilight06:0110:01
Sunrise06:2710:27
Sunset20:1800:18
Evening civil twilight20:4500:45

Current date and time
Zulu (UTC)  26-May-2022 22:05:55
Local (UTC-4)  26-May-2022 18:05:55
 
METAR
KCRG 
6nm NW 
262153Z 16014G23KT 10SM CLR 29/22 A3003 RMK AO2 SLP169 T02890217
KNRB 
9nm N 
262152Z 15015G22KT 10SM FEW040 BKN250 28/23 A3003 RMK AO2 SLP169 T02780228
KNIP 
11nm W 
262153Z 12012KT 10SM FEW040 FEW210 BKN250 29/23 A3002 RMK AO2 SLP162 T02940228
KSGJ 
18nm SE 
262156Z 16014G22KT 10SM CLR 27/23 A3005 RMK AO2 SLP174 T02720228
KHEG 
19nm W 
262155Z AUTO 13012KT 10SM FEW055 FEW070 29/22 A3003 RMK AO2
KJAX 
20nm NW 
262156Z 14012G19KT 10SM FEW045 SCT210 BKN250 29/22 A3001 RMK AO2 SLP162 T02890217
TAF
KCRG 
6nm NW 
261720Z 2618/2718 14012G18KT P6SM VCSH BKN035 BKN200 FM270000 16009KT P6SM VCTS BKN040CB BKN100 BKN200 FM270400 18006KT P6SM VCSH SCT025 BKN100 OVC200 FM271600 22012G18KT P6SM SHRA VCTS SCT020 BKN035CB OVC050
KNRB 
9nm N 
2615/2715 16015G25KT SCT040 SCT150 BKN250 QNH2998INS FM270200 18009KT 9999 VCSH SCT030 SCT250 QNH3002INS TEMPO 2706/2712 BKN025 OVC080 T31/2619Z T24/2711Z FN20022
KNIP 
11nm W 
TAF 2615/2715 17012KT 9999 SCT025 SCT050 BKN200 QNH3007INS FM261900 14014G22KT 9999 SCT045 BKN080 BKN250 QNH3000INS FM270100 16010KT 9999 VCTS SCT040CB BKN120 BKN250 QNH3003INS TEMPO 2702/2705 4800 SHRA BKN035 OVC100 FM271200 19009KT 9999 VCSH SCT020 BKN060 OVC150 QNH2999INS T32/2620Z T24/2711Z FN00219
KSGJ 
18nm SE 
261720Z 2618/2718 14018KT P6SM SCT035 BKN200 FM270100 16013KT P6SM VCSH SCT025 BKN100 BKN200 FM270500 18009KT P6SM SCT025 BKN150 BKN250 FM271500 20012G18KT P6SM VCSH SCT025 BKN040 BKN200
KJAX 
20nm NW 
262001Z 2620/2718 14012G18KT P6SM VCSH BKN040 BKN100 BKN200 FM262300 16009KT P6SM VCTS BKN040CB BKN100 BKN200 TEMPO 2700/2702 VRB15G25KT 3SM TSRA BKN025CB FM270400 18006KT P6SM VCSH SCT025 BKN100 OVC200 FM271500 22012G18KT P6SM SHRA VCTS SCT020 BKN035CB OVC050
NOTAMs
Click for the latest NOTAMs
NOTAMs are issued by the DoD/FAA and will open in a separate window not controlled by AirNav.

 

 
 

Would you like to see your business listed on this page?

 If your business provides an interesting product or service to pilots, flight crews, aircraft, or users of the Deep Forest Airport, you should consider listing it here.  To start the listing process, click on the button below
 
Add a business
 

Other Pages about Deep Forest Airport

Update a link
 
Copyright © AirNav, LLC. All rights reserved. Privacy Policy  Contact